createdAt,value
2018-12-30T00:01:45.146Z,81.10
2018-12-30T00:04:15.077Z,80.50
2018-12-30T00:06:44.541Z,81.10
2018-12-30T00:09:19.571Z,81.10
2018-12-30T00:11:48.291Z,80.50
2018-12-30T00:14:17.121Z,81.80
2018-12-30T00:16:46.313Z,80.80
2018-12-30T00:19:15.565Z,80.60
2018-12-30T00:21:44.343Z,80.70
2018-12-30T00:24:13.137Z,80.20
2018-12-30T00:26:42.230Z,79.90
2018-12-30T00:29:10.997Z,79.90
2018-12-30T00:31:39.757Z,79.80
2018-12-30T00:34:08.895Z,79.50
2018-12-30T00:36:37.622Z,80.60
2018-12-30T00:39:07.041Z,79.80
2018-12-30T00:41:36.250Z,79.60
2018-12-30T00:44:05.023Z,79.80
2018-12-30T00:46:33.785Z,79.60
2018-12-30T00:49:02.525Z,79.80
2018-12-30T00:51:31.261Z,80.00
2018-12-30T00:54:00.430Z,79.90
2018-12-30T00:56:29.526Z,79.80
2018-12-30T00:58:58.301Z,79.40
2018-12-30T01:01:27.082Z,79.90
2018-12-30T01:03:55.901Z,79.50
2018-12-30T01:06:24.642Z,79.70
2018-12-30T01:08:53.449Z,79.50
2018-12-30T01:11:22.638Z,79.40
2018-12-30T01:13:51.414Z,80.00
2018-12-30T01:16:20.197Z,80.10
2018-12-30T01:18:48.998Z,80.30
2018-12-30T01:21:24.808Z,80.20
2018-12-30T01:23:48.161Z,79.90
2018-12-30T01:26:17.197Z,80.40
2018-12-30T01:28:45.953Z,80.40
2018-12-30T01:31:14.777Z,80.40
2018-12-30T01:33:43.548Z,80.10
2018-12-30T01:36:12.306Z,80.20
2018-12-30T01:38:41.151Z,80.70
2018-12-30T01:41:10.245Z,79.90
2018-12-30T01:43:39.008Z,80.50
2018-12-30T01:46:07.813Z,80.40
2018-12-30T01:48:36.923Z,80.70
2018-12-30T01:51:05.625Z,80.80
2018-12-30T01:53:34.438Z,80.70
2018-12-30T01:56:03.489Z,80.70
2018-12-30T01:58:32.217Z,80.40
2018-12-30T02:01:01.564Z,80.70
2018-12-30T02:03:30.577Z,80.70
2018-12-30T02:05:59.320Z,80.50
2018-12-30T02:08:28.201Z,80.70
2018-12-30T02:10:57.046Z,80.60
2018-12-30T02:13:25.789Z,80.80
2018-12-30T02:15:54.513Z,80.80
2018-12-30T02:18:23.621Z,80.70
2018-12-30T02:21:02.965Z,80.50
2018-12-30T02:23:31.837Z,80.20
2018-12-30T02:26:00.585Z,80.00
2018-12-30T02:28:29.621Z,80.00
2018-12-30T02:30:58.425Z,80.50
2018-12-30T02:33:27.301Z,80.00
2018-12-30T02:35:56.058Z,79.50
2018-12-30T02:38:25.321Z,79.70
2018-12-30T02:40:54.065Z,79.70
2018-12-30T02:43:22.830Z,79.40
2018-12-30T02:45:51.570Z,79.80
2018-12-30T02:48:20.284Z,80.60
2018-12-30T02:50:49.026Z,79.60
2018-12-30T02:53:18.134Z,80.70
2018-12-30T02:55:46.873Z,79.80
2018-12-30T02:58:15.615Z,79.80
2018-12-30T03:00:44.599Z,80.00
2018-12-30T03:03:13.318Z,79.90
2018-12-30T03:05:42.061Z,80.10
2018-12-30T03:08:11.121Z,80.30
2018-12-30T03:10:39.837Z,80.40
2018-12-30T03:13:08.599Z,80.50
2018-12-30T03:15:37.516Z,80.60
2018-12-30T03:18:06.317Z,80.50
2018-12-30T03:20:35.093Z,80.50
2018-12-30T03:23:04.228Z,80.50
2018-12-30T03:25:33.545Z,80.80
2018-12-30T03:28:03.074Z,80.80
2018-12-30T03:30:31.834Z,81.00
2018-12-30T03:33:00.569Z,81.20
2018-12-30T03:35:29.273Z,81.30
2018-12-30T03:37:58.051Z,81.40
2018-12-30T03:40:26.872Z,81.60
2018-12-30T03:42:55.697Z,81.50
2018-12-30T03:45:24.449Z,81.60
2018-12-30T03:47:53.172Z,81.60
2018-12-30T03:50:21.915Z,81.70
2018-12-30T03:52:51.506Z,81.80
2018-12-30T03:55:20.229Z,82.50
2018-12-30T03:57:48.981Z,81.80
2018-12-30T04:00:17.705Z,81.70
2018-12-30T04:02:46.503Z,81.60
2018-12-30T04:05:15.257Z,81.80
2018-12-30T04:07:44.045Z,81.70
2018-12-30T04:10:12.849Z,81.80
2018-12-30T04:12:41.601Z,81.80
2018-12-30T04:15:10.787Z,81.60
2018-12-30T04:17:39.490Z,81.80
2018-12-30T04:20:08.278Z,81.80
2018-12-30T04:22:37.991Z,81.60
2018-12-30T04:25:06.851Z,81.60
2018-12-30T04:27:35.685Z,81.60
2018-12-30T04:30:05.208Z,81.40
2018-12-30T04:32:33.999Z,80.90
2018-12-30T04:35:02.713Z,80.80
2018-12-30T04:37:33.265Z,80.60
2018-12-30T04:40:01.979Z,80.30
2018-12-30T04:42:30.675Z,80.50
2018-12-30T04:44:59.858Z,80.40
2018-12-30T04:47:28.578Z,81.10
2018-12-30T04:49:57.298Z,80.60
2018-12-30T04:52:26.280Z,80.50
2018-12-30T04:54:55.130Z,80.50
2018-12-30T04:57:23.869Z,80.20
2018-12-30T04:59:53.005Z,80.30
2018-12-30T05:02:21.746Z,80.40
2018-12-30T05:04:50.466Z,80.40
2018-12-30T05:07:19.202Z,80.50
2018-12-30T05:09:47.902Z,80.40
2018-12-30T05:12:16.729Z,80.60
2018-12-30T05:14:45.467Z,80.60
2018-12-30T05:17:14.339Z,80.70
2018-12-30T05:19:43.098Z,80.80
2018-12-30T05:22:12.173Z,80.90
2018-12-30T05:24:40.893Z,80.90
2018-12-30T05:27:09.697Z,81.00
2018-12-30T05:29:38.509Z,81.80
2018-12-30T05:32:07.262Z,81.20
2018-12-30T05:34:36.035Z,81.30
2018-12-30T05:37:05.125Z,81.40
2018-12-30T05:39:33.953Z,81.40
2018-12-30T05:42:02.666Z,81.50
2018-12-30T05:44:31.483Z,81.60
2018-12-30T05:47:00.225Z,82.10
2018-12-30T05:49:28.941Z,81.50
2018-12-30T05:51:58.013Z,81.80
2018-12-30T05:54:26.768Z,81.80
2018-12-30T05:56:56.332Z,81.70
2018-12-30T05:59:25.069Z,81.80
2018-12-30T06:01:53.789Z,81.80
2018-12-30T06:04:22.525Z,81.80
2018-12-30T06:06:51.517Z,81.80
2018-12-30T06:09:20.305Z,81.60
2018-12-30T06:11:49.047Z,81.70
2018-12-30T06:14:17.785Z,81.80
2018-12-30T06:16:46.514Z,81.80
2018-12-30T06:19:15.265Z,81.80
2018-12-30T06:21:44.353Z,81.70
2018-12-30T06:24:13.153Z,82.70
2018-12-30T06:26:41.939Z,81.70
2018-12-30T06:29:10.682Z,81.70
2018-12-30T06:31:39.421Z,81.70
2018-12-30T06:34:08.267Z,81.70
2018-12-30T06:36:37.442Z,81.70
2018-12-30T06:39:07.185Z,81.80
2018-12-30T06:41:35.985Z,81.80
2018-12-30T06:44:04.834Z,82.00
2018-12-30T06:46:33.733Z,81.80
2018-12-30T06:49:02.486Z,82.00
2018-12-30T06:51:31.761Z,82.00
2018-12-30T06:54:00.497Z,82.00
2018-12-30T06:56:29.233Z,82.00
2018-12-30T06:58:58.281Z,81.90
2018-12-30T07:01:27.041Z,82.10
2018-12-30T07:03:55.838Z,82.10
2018-12-30T07:06:24.610Z,82.20
2018-12-30T07:08:53.362Z,82.20
2018-12-30T07:11:22.105Z,82.30
2018-12-30T07:13:51.212Z,82.30
2018-12-30T07:16:19.914Z,82.30
2018-12-30T07:18:48.653Z,82.20
2018-12-30T07:21:17.401Z,82.10
2018-12-30T07:23:46.142Z,82.30
2018-12-30T07:26:14.901Z,82.20
2018-12-30T07:28:43.938Z,82.30
2018-12-30T07:31:12.746Z,82.30
2018-12-30T07:33:41.518Z,82.30
2018-12-30T07:36:10.248Z,82.60
2018-12-30T07:38:38.941Z,82.60
2018-12-30T07:41:07.681Z,82.80
2018-12-30T07:43:36.555Z,82.90
2018-12-30T07:46:05.285Z,82.90
2018-12-30T07:48:34.010Z,82.90
2018-12-30T07:51:03.237Z,83.10
2018-12-30T07:53:32.035Z,83.10
2018-12-30T07:56:00.765Z,83.20
2018-12-30T07:58:29.814Z,83.10
2018-12-30T08:00:58.617Z,83.10
2018-12-30T08:03:27.330Z,83.30
2018-12-30T08:05:56.174Z,83.10
2018-12-30T08:08:24.913Z,83.20
2018-12-30T08:10:53.726Z,83.10
2018-12-30T08:13:22.845Z,83.00
2018-12-30T08:15:51.576Z,83.10
2018-12-30T08:18:20.308Z,83.00
2018-12-30T08:20:49.147Z,83.10
2018-12-30T08:23:21.387Z,83.30
2018-12-30T08:25:48.325Z,83.30
2018-12-30T08:28:24.844Z,83.50
2018-12-30T08:30:47.537Z,83.60
2018-12-30T08:33:16.294Z,83.90
2018-12-30T08:35:45.421Z,83.60
2018-12-30T08:38:14.158Z,84.50
2018-12-30T08:40:42.884Z,83.80
2018-12-30T08:43:11.972Z,84.00
2018-12-30T08:45:40.702Z,84.10
2018-12-30T08:48:09.501Z,84.20
2018-12-30T08:50:38.358Z,84.10
2018-12-30T08:53:07.154Z,84.30
2018-12-30T08:55:35.946Z,85.10
2018-12-30T08:58:04.699Z,84.50
2018-12-30T09:00:33.431Z,84.50
2018-12-30T09:03:02.160Z,84.70
2018-12-30T09:05:30.891Z,84.70
2018-12-30T09:07:59.680Z,85.10
2018-12-30T09:10:28.457Z,84.90
2018-12-30T09:12:57.635Z,84.90
2018-12-30T09:15:26.628Z,85.10
2018-12-30T09:17:55.631Z,85.20
2018-12-30T09:20:24.651Z,85.30
2018-12-30T09:22:53.417Z,85.30
2018-12-30T09:25:22.157Z,85.50
2018-12-30T09:27:51.306Z,85.60
2018-12-30T09:30:20.096Z,85.70
2018-12-30T09:32:48.934Z,85.70
2018-12-30T09:35:17.994Z,85.90
2018-12-30T09:37:46.958Z,85.90
2018-12-30T09:40:15.762Z,85.90
2018-12-30T09:42:44.859Z,85.90
2018-12-30T09:45:13.571Z,86.00
2018-12-30T09:47:42.437Z,86.00
2018-12-30T09:50:11.542Z,86.10
2018-12-30T09:52:40.266Z,86.10
2018-12-30T09:55:09.097Z,86.20
2018-12-30T09:57:38.434Z,86.40
2018-12-30T10:00:07.929Z,86.30
2018-12-30T10:02:39.900Z,86.50
2018-12-30T10:05:09.091Z,86.40
2018-12-30T10:07:37.879Z,86.60
2018-12-30T10:10:06.694Z,86.50
2018-12-30T10:12:35.945Z,86.70
2018-12-30T10:15:09.653Z,86.70
2018-12-30T10:17:35.477Z,86.80
2018-12-30T10:20:04.457Z,86.80
2018-12-30T10:22:35.814Z,86.90
2018-12-30T10:25:05.113Z,87.00
2018-12-30T10:27:33.875Z,87.10
2018-12-30T10:30:02.821Z,87.10
2018-12-30T10:32:52.644Z,87.30
2018-12-30T10:35:23.459Z,87.00
2018-12-30T10:37:51.901Z,87.30
2018-12-30T10:40:23.980Z,86.90
2018-12-30T10:42:52.786Z,86.60
2018-12-30T10:45:21.579Z,86.80
2018-12-30T10:47:51.826Z,86.70
2018-12-30T10:50:20.662Z,86.60
2018-12-30T10:52:53.939Z,86.60
2018-12-30T10:55:22.749Z,86.50
2018-12-30T10:57:51.509Z,86.50
2018-12-30T11:00:20.623Z,86.50
2018-12-30T11:02:49.417Z,86.20
2018-12-30T11:05:18.213Z,86.00
2018-12-30T11:07:50.353Z,86.20
2018-12-30T11:10:22.206Z,85.90
2018-12-30T11:12:51.302Z,86.00
2018-12-30T11:15:20.598Z,85.80
2018-12-30T11:17:49.321Z,85.90
2018-12-30T11:20:18.035Z,85.90
2018-12-30T11:22:50.174Z,85.70
2018-12-30T11:25:19.004Z,85.70
2018-12-30T11:27:47.817Z,85.50
2018-12-30T11:30:16.793Z,85.40
2018-12-30T11:32:51.297Z,85.50
2018-12-30T11:35:20.298Z,85.50
2018-12-30T11:37:58.017Z,85.40
2018-12-30T11:40:26.433Z,84.90
2018-12-30T11:42:55.311Z,85.20
2018-12-30T11:45:25.616Z,85.20
2018-12-30T11:47:57.075Z,85.20
2018-12-30T11:50:27.141Z,85.00
2018-12-30T11:52:57.020Z,85.20
2018-12-30T11:55:25.787Z,85.20
2018-12-30T11:57:54.585Z,85.10
2018-12-30T12:00:24.779Z,85.00
2018-12-30T12:02:53.493Z,84.90
2018-12-30T12:05:24.026Z,85.10
2018-12-30T12:07:52.790Z,85.20
2018-12-30T12:10:21.697Z,85.10
2018-12-30T12:12:50.413Z,84.80
2018-12-30T12:15:19.657Z,85.10
2018-12-30T12:17:48.390Z,85.00
2018-12-30T12:20:17.254Z,85.00
2018-12-30T12:22:49.066Z,85.10
2018-12-30T12:25:17.784Z,85.00
2018-12-30T12:27:46.518Z,85.10
2018-12-30T12:30:17.860Z,85.10
2018-12-30T12:32:46.633Z,84.90
2018-12-30T12:35:15.365Z,85.40
2018-12-30T12:37:44.516Z,85.30
2018-12-30T12:40:13.529Z,85.50
2018-12-30T12:42:45.325Z,85.50
2018-12-30T12:45:14.298Z,85.30
2018-12-30T12:47:44.967Z,85.10
2018-12-30T12:50:13.649Z,85.70
2018-12-30T12:52:47.149Z,85.30
2018-12-30T12:55:15.942Z,85.50
2018-12-30T12:57:47.681Z,85.80
2018-12-30T13:00:17.098Z,85.50
2018-12-30T13:02:45.850Z,85.70
2018-12-30T13:05:14.579Z,85.60
2018-12-30T13:07:43.672Z,85.80
2018-12-30T13:10:12.502Z,85.80
2018-12-30T13:12:41.301Z,85.80
2018-12-30T13:15:10.202Z,85.90
2018-12-30T13:17:38.917Z,86.00
2018-12-30T13:20:10.302Z,86.00
2018-12-30T13:22:39.482Z,85.30
2018-12-30T13:25:08.281Z,86.20
2018-12-30T13:27:38.371Z,86.20
2018-12-30T13:30:10.955Z,86.50
2018-12-30T13:32:41.546Z,86.60
2018-12-30T13:35:10.334Z,86.50
2018-12-30T13:37:44.978Z,86.70
2018-12-30T13:40:13.687Z,83.50
2018-12-30T13:42:45.058Z,87.20
2018-12-30T13:45:14.108Z,87.30
2018-12-30T13:47:42.987Z,87.50
2018-12-30T13:50:13.199Z,87.50
2018-12-30T13:52:42.119Z,87.80
2018-12-30T13:55:10.888Z,88.10
2018-12-30T13:57:39.680Z,88.50
2018-12-30T14:00:09.330Z,88.80
2018-12-30T14:02:40.632Z,89.20
2018-12-30T14:05:18.251Z,89.00
2018-12-30T14:07:44.826Z,88.80
2018-12-30T14:10:16.761Z,89.30
2018-12-30T14:12:51.746Z,89.80
2018-12-30T14:15:20.510Z,89.70
2018-12-30T14:17:52.295Z,90.00
2018-12-30T14:20:23.445Z,89.50
2018-12-30T14:22:56.721Z,90.00
2018-12-30T14:25:25.462Z,90.40
2018-12-30T14:27:54.517Z,90.40
2018-12-30T14:30:27.333Z,90.50
2018-12-30T14:33:25.878Z,90.40
2018-12-30T14:35:42.898Z,90.30
2018-12-30T14:38:12.002Z,90.60
2018-12-30T14:40:40.828Z,90.90
2018-12-30T14:43:09.602Z,90.90
2018-12-30T14:45:46.499Z,91.00
2018-12-30T14:48:15.371Z,90.90
2018-12-30T14:50:44.202Z,91.10
2018-12-30T14:53:18.991Z,91.20
2018-12-30T14:55:43.462Z,91.30
2018-12-30T14:58:12.215Z,91.30
2018-12-30T15:00:41.329Z,91.40
2018-12-30T15:03:10.134Z,91.50
2018-12-30T15:05:39.023Z,91.60
2018-12-30T15:08:07.910Z,91.60
2018-12-30T15:10:36.722Z,91.60
2018-12-30T15:13:05.454Z,91.70
2018-12-30T15:15:34.293Z,91.80
2018-12-30T15:18:03.009Z,91.90
2018-12-30T15:20:31.750Z,91.90
2018-12-30T15:23:01.077Z,91.90
2018-12-30T15:25:42.097Z,91.90
2018-12-30T15:28:48.214Z,91.70
2018-12-30T15:32:18.716Z,91.70
2018-12-30T15:34:43.268Z,91.60
2018-12-30T15:41:21.963Z,91.50
2018-12-30T15:44:12.029Z,90.40
2018-12-30T15:46:35.007Z,91.30
2018-12-30T15:49:03.745Z,91.40
2018-12-30T15:51:32.586Z,91.90
2018-12-30T15:54:01.662Z,92.50
2018-12-30T15:56:30.410Z,92.20
2018-12-30T15:58:59.209Z,92.20
2018-12-30T16:01:28.231Z,92.20
2018-12-30T16:03:57.002Z,92.30
2018-12-30T16:06:31.030Z,92.40
2018-12-30T16:09:00.230Z,91.70
2018-12-30T16:11:28.945Z,92.40
2018-12-30T16:13:57.797Z,92.40
2018-12-30T16:16:26.906Z,92.40
2018-12-30T16:18:58.449Z,92.50
2018-12-30T16:21:27.182Z,92.40
2018-12-30T16:23:55.944Z,92.60
2018-12-30T16:26:26.493Z,92.70
2018-12-30T16:28:55.337Z,92.40
2018-12-30T16:31:28.009Z,92.60
2018-12-30T16:34:02.470Z,92.60
2018-12-30T16:36:33.077Z,92.20
2018-12-30T16:39:01.823Z,92.70
2018-12-30T16:41:31.084Z,92.70
2018-12-30T16:44:06.038Z,92.70
2018-12-30T16:46:34.754Z,92.70
2018-12-30T16:49:03.491Z,92.80
2018-12-30T16:51:34.354Z,92.90
2018-12-30T16:54:03.057Z,92.90
2018-12-30T16:56:31.901Z,93.00
2018-12-30T16:59:00.903Z,93.10
2018-12-30T17:01:32.481Z,93.10
2018-12-30T17:04:01.418Z,93.10
2018-12-30T17:06:33.868Z,93.10
2018-12-30T17:09:00.717Z,93.20
2018-12-30T17:11:29.500Z,93.00
2018-12-30T17:13:58.641Z,93.30
2018-12-30T17:16:27.382Z,93.30
2018-12-30T17:18:56.337Z,93.30
2018-12-30T17:21:25.145Z,93.30
2018-12-30T17:23:53.890Z,93.30
2018-12-30T17:26:22.635Z,93.40
2018-12-30T17:28:51.445Z,93.40
2018-12-30T17:31:20.190Z,93.50
2018-12-30T17:33:48.910Z,93.50
2018-12-30T17:36:18.037Z,93.50
2018-12-30T17:38:46.798Z,93.60
2018-12-30T17:41:15.530Z,93.60
2018-12-30T17:43:44.622Z,93.70
2018-12-30T17:46:18.229Z,93.60
2018-12-30T17:48:44.336Z,93.70
2018-12-30T17:51:13.396Z,93.70
2018-12-30T17:53:45.087Z,93.80
2018-12-30T17:56:13.815Z,93.90
2018-12-30T17:58:42.557Z,93.90
2018-12-30T18:01:11.287Z,94.00
2018-12-30T18:03:40.093Z,94.10
2018-12-30T18:06:08.858Z,94.10
2018-12-30T18:08:37.650Z,94.20
2018-12-30T18:11:06.398Z,94.20
2018-12-30T18:13:35.501Z,94.20
2018-12-30T18:16:04.300Z,94.20
2018-12-30T18:18:34.306Z,94.20
2018-12-30T18:21:03.401Z,94.20
2018-12-30T18:23:32.151Z,94.30
2018-12-30T18:26:00.891Z,94.30
2018-12-30T18:28:29.713Z,94.40
2018-12-30T18:30:58.439Z,94.30
2018-12-30T18:33:27.157Z,94.20
2018-12-30T18:35:56.233Z,94.20
2018-12-30T18:38:25.021Z,94.20
2018-12-30T18:40:53.767Z,94.20
2018-12-30T18:43:22.490Z,94.20
2018-12-30T18:45:51.246Z,94.50
2018-12-30T18:48:20.000Z,94.30
2018-12-30T18:50:48.745Z,94.60
2018-12-30T18:53:17.458Z,94.20
2018-12-30T18:55:46.532Z,94.20
2018-12-30T18:58:15.383Z,94.20
2018-12-30T19:00:44.206Z,94.20
2018-12-30T19:03:12.977Z,94.20
2018-12-30T19:05:41.825Z,94.20
2018-12-30T19:08:10.549Z,94.20
2018-12-30T19:10:39.362Z,94.20
2018-12-30T19:13:08.417Z,94.20
2018-12-30T19:15:37.187Z,94.30
2018-12-30T19:18:05.909Z,94.20
2018-12-30T19:20:35.925Z,94.20
2018-12-30T19:23:04.733Z,94.30
2018-12-30T19:25:33.494Z,94.30
2018-12-30T19:28:02.240Z,94.30
2018-12-30T19:30:30.941Z,94.30
2018-12-30T19:32:59.681Z,94.30
2018-12-30T19:35:28.804Z,94.20
2018-12-30T19:37:57.510Z,94.20
2018-12-30T19:40:26.230Z,94.20
2018-12-30T19:42:55.359Z,94.20
2018-12-30T19:45:24.137Z,94.30
2018-12-30T19:47:52.949Z,94.60
2018-12-30T19:50:21.777Z,94.30
2018-12-30T19:52:50.523Z,94.30
2018-12-30T19:55:19.269Z,94.30
2018-12-30T19:57:48.038Z,94.30
2018-12-30T20:00:16.797Z,94.30
2018-12-30T20:02:45.541Z,94.30
2018-12-30T20:05:16.597Z,94.30
2018-12-30T20:07:45.354Z,94.20
2018-12-30T20:10:14.105Z,94.20
2018-12-30T20:12:43.245Z,94.30
2018-12-30T20:15:12.078Z,94.20
2018-12-30T20:17:40.870Z,94.60
2018-12-30T20:20:09.700Z,94.30
2018-12-30T20:22:38.445Z,94.30
2018-12-30T20:25:16.973Z,94.30
2018-12-30T20:27:45.832Z,94.10
2018-12-30T20:30:14.666Z,94.30
2018-12-30T20:32:43.656Z,94.30
2018-12-30T20:35:12.409Z,94.40
2018-12-30T20:37:41.141Z,94.30
2018-12-30T20:40:10.305Z,94.30
2018-12-30T20:42:39.054Z,94.40
2018-12-30T20:45:07.949Z,94.40
2018-12-30T20:47:36.781Z,94.30
2018-12-30T20:50:05.747Z,94.30
2018-12-30T20:52:34.590Z,94.40
2018-12-30T20:55:03.665Z,94.60
2018-12-30T20:57:33.007Z,94.30
2018-12-30T21:00:03.147Z,94.20
2018-12-30T21:02:31.948Z,94.40
2018-12-30T21:05:00.670Z,94.40
2018-12-30T21:07:29.430Z,94.50
2018-12-30T21:09:58.488Z,94.50
2018-12-30T21:12:27.245Z,94.50
2018-12-30T21:14:55.973Z,94.50
2018-12-30T21:17:24.701Z,94.60
2018-12-30T21:19:53.882Z,94.60
2018-12-30T21:22:22.582Z,94.70
2018-12-30T21:24:51.416Z,94.60
2018-12-30T21:27:20.263Z,94.70
2018-12-30T21:29:49.215Z,94.70
2018-12-30T21:32:21.133Z,94.50
2018-12-30T21:34:50.967Z,94.70
2018-12-30T21:37:19.710Z,94.50
2018-12-30T21:39:48.844Z,94.70
2018-12-30T21:42:17.566Z,94.80
2018-12-30T21:44:46.289Z,94.70
2018-12-30T21:47:15.384Z,94.70
2018-12-30T21:49:44.166Z,94.70
2018-12-30T21:52:12.949Z,94.80
2018-12-30T21:54:42.059Z,94.80
2018-12-30T21:57:10.765Z,94.70
2018-12-30T21:59:39.502Z,94.80
2018-12-30T22:02:08.337Z,94.70
2018-12-30T22:04:37.165Z,94.80
2018-12-30T22:07:08.048Z,94.70
2018-12-30T22:09:37.196Z,94.60
2018-12-30T22:12:05.951Z,94.60
2018-12-30T22:14:34.733Z,94.70
2018-12-30T22:17:03.637Z,94.70
2018-12-30T22:19:32.348Z,94.70
2018-12-30T22:22:01.190Z,94.60
2018-12-30T22:24:29.909Z,94.60
2018-12-30T22:26:58.665Z,94.70
2018-12-30T22:29:29.077Z,94.70
2018-12-30T22:32:00.746Z,94.50
2018-12-30T22:34:29.541Z,94.70
2018-12-30T22:36:58.310Z,94.60
2018-12-30T22:39:27.045Z,94.60
2018-12-30T22:41:56.081Z,94.70
2018-12-30T22:44:24.799Z,94.50
2018-12-30T22:46:53.897Z,94.70
2018-12-30T22:49:22.697Z,94.70
2018-12-30T22:51:51.417Z,94.70
2018-12-30T22:54:20.425Z,94.80
2018-12-30T22:56:49.209Z,94.80
2018-12-30T22:59:17.989Z,94.90
2018-12-30T23:01:47.694Z,94.90
2018-12-30T23:04:16.442Z,94.80
2018-12-30T23:06:45.159Z,94.80
2018-12-30T23:09:14.317Z,94.90
2018-12-30T23:11:43.089Z,94.90
2018-12-30T23:14:13.480Z,94.80
2018-12-30T23:16:44.682Z,94.80
2018-12-30T23:19:13.393Z,94.90
2018-12-30T23:21:42.125Z,94.90
2018-12-30T23:24:10.885Z,94.90
2018-12-30T23:26:39.630Z,94.80
2018-12-30T23:29:08.364Z,94.80
2018-12-30T23:31:37.190Z,94.80
2018-12-30T23:34:05.959Z,94.80
2018-12-30T23:36:34.758Z,94.90
2018-12-30T23:39:03.914Z,94.90
2018-12-30T23:41:32.721Z,94.80
2018-12-30T23:44:02.914Z,94.90
2018-12-30T23:46:31.687Z,94.90
2018-12-30T23:49:00.522Z,94.90
2018-12-30T23:51:29.250Z,94.90
2018-12-30T23:54:02.054Z,94.80
2018-12-30T23:56:39.726Z,94.80
2018-12-30T23:59:12.936Z,94.80
